Snellville, Georgia
Current Conditions -  °F | °C
As of 12:45 PM on Thursday 27 Nov 2014 (Local Time) from KLZU Reporting Station
Broken Clouds Broken Clouds  
Wind Chill: 38°   Ceiling: 4100
Heat Index: 45°   Visibility: 10mi
Dew Point: 25°   Wind: 13mph
Humidity: 46%   Direction: 300°WNW
Pressure: 30.24"   Gusts: 21mph
Location:  33.86°N, 84.02°W
Report Text: KLZU 271745Z 30011G18KT 10SM BKN041 07/M04 A3024 RMK ATIS M ; RWY 25 ; LL
Loading
Personal Weather Stations






























Interactive Weather Map New forecast layout! Learn more

10-Day Weather Forecast

Advertisements
Track Severe Weather on mobile